createdAt,value
2019-01-20T05:02:47.872Z,57.27
2019-01-20T05:05:22.802Z,71.90
2019-01-20T05:07:57.835Z,74.80
2019-01-20T05:10:32.813Z,65.67
2019-01-20T05:13:07.834Z,68.20
2019-01-20T06:00:44.422Z,69.73
2019-01-20T06:03:19.597Z,73.60
2019-01-20T06:05:54.819Z,82.37
2019-01-20T06:08:29.966Z,75.20
2019-01-20T06:11:05.199Z,76.93
2019-01-20T06:13:40.302Z,67.13
2019-01-20T07:00:48.182Z,74.50
2019-01-20T07:03:23.382Z,77.03
2019-01-20T07:05:58.551Z,82.33
2019-01-20T07:08:33.632Z,70.20
2019-01-20T07:11:08.758Z,85.13
2019-01-20T07:13:43.956Z,82.33
2019-01-20T08:02:03.711Z,71.83
2019-01-20T08:04:26.263Z,60.50
2019-01-20T08:07:01.470Z,63.57
2019-01-20T08:09:36.549Z,68.37
2019-01-20T08:12:11.746Z,61.53
2019-01-20T08:14:46.593Z,66.93
2019-01-20T09:00:15.139Z,65.83
2019-01-20T09:02:50.660Z,66.70
2019-01-20T09:05:25.829Z,66.33
2019-01-20T09:08:01.219Z,76.07
2019-01-20T09:10:25.551Z,70.77
2019-01-20T09:12:48.166Z,70.67
2019-01-20T10:02:32.012Z,61.63
2019-01-20T10:05:07.014Z,67.30
2019-01-20T10:07:41.909Z,61.53
2019-01-20T10:10:16.920Z,64.57
2019-01-20T10:12:51.904Z,66.97
2019-01-20T11:01:11.787Z,64.23
2019-01-20T11:03:46.938Z,67.77
2019-01-20T11:06:21.908Z,64.83
2019-01-20T11:08:56.875Z,69.67
2019-01-20T11:11:31.947Z,69.33
2019-01-20T11:14:09.545Z,67.50
2019-01-20T12:02:28.559Z,66.13
2019-01-20T12:05:03.839Z,68.67
2019-01-20T12:07:39.104Z,65.93
2019-01-20T12:10:14.316Z,60.80
2019-01-20T12:13:08.998Z,68.93
2019-01-20T13:02:15.589Z,74.43
2019-01-20T13:04:38.273Z,72.37
2019-01-20T13:07:00.811Z,68.30
2019-01-20T13:09:23.354Z,76.93
2019-01-20T13:11:46.147Z,67.27
2019-01-20T13:14:08.939Z,67.97
2019-01-20T14:00:56.707Z,67.87
2019-01-20T14:03:19.328Z,71.90
2019-01-20T14:05:42.037Z,68.10
2019-01-20T14:08:04.722Z,69.97
2019-01-20T14:10:27.719Z,73.17
2019-01-20T14:12:50.674Z,75.47
2019-01-20T15:01:57.943Z,96.13
2019-01-20T15:04:20.507Z,98.73
2019-01-20T15:06:42.990Z,89.60
2019-01-20T15:09:07.134Z,97.13
2019-01-20T15:11:30.710Z,100.30
2019-01-20T15:13:53.342Z,94.10
2019-01-20T16:01:21.239Z,96.07
2019-01-20T16:03:43.774Z,93.97
2019-01-20T16:06:06.339Z,98.13
2019-01-20T16:08:28.803Z,97.47
2019-01-20T16:10:51.256Z,99.57
2019-01-20T16:13:13.782Z,96.23
2019-01-20T16:57:35.862Z,93.77
2019-01-20T16:59:58.397Z,92.73
2019-01-20T17:02:20.834Z,99.57
2019-01-20T17:04:43.266Z,77.33
2019-01-20T17:07:05.705Z,95.10
2019-01-20T17:09:28.202Z,84.87
2019-01-20T17:11:50.642Z,81.87
2019-01-20T17:14:13.101Z,89.37
2019-01-20T18:02:32.523Z,103.33
2019-01-20T18:04:55.074Z,95.20
2019-01-20T18:07:17.506Z,84.97
2019-01-20T18:09:39.972Z,101.27
2019-01-20T18:12:02.502Z,92.80
2019-01-20T18:14:24.948Z,89.70
2019-01-20T19:01:11.832Z,87.83
2019-01-20T19:03:35.447Z,80.03
2019-01-20T19:05:57.996Z,86.37
2019-01-20T19:08:20.431Z,85.37
2019-01-20T19:10:42.898Z,81.97
2019-01-20T19:13:05.563Z,85.33
2019-01-20T20:01:11.291Z,78.17
2019-01-20T20:03:33.749Z,77.30
2019-01-20T20:05:57.408Z,69.53
2019-01-20T20:08:19.965Z,79.57
2019-01-20T20:10:42.531Z,70.43
2019-01-20T20:13:05.086Z,80.43
2019-01-20T21:01:16.903Z,79.37
2019-01-20T21:03:40.043Z,82.00
2019-01-20T21:06:02.483Z,78.87
2019-01-20T21:08:25.022Z,80.57
2019-01-20T21:10:47.614Z,83.17
2019-01-20T21:13:10.058Z,78.10
